Terminal Aerodrome Forecast
Issued by NWS

Home | Current Version | Previous Version | Text Only | Print | Product List | Glossary Off
Versions: 1 2 3 4 5 6 7 8 9 10 11 12 13 14 15 16 17 18 19 20 21 22

210
FTUS43 KBIS 222219 AAA
TAFJMS
TAF AMD
KJMS 222219Z 2222/2318 34017G25KT P6SM VCSH BKN070
      TEMPO 2222/2301 6SM -SHRA BKN050
     FM230200 34011KT P6SM OVC050
     FM230700 35015G20KT P6SM BKN025=

USA.gov is the U.S. government's official web portal to all federal, state and local government web resources and services.